sensor_id;sensor_type;location;lat;lon;timestamp;temperature;humidity
14016;DHT22;7083;48.854;9.158;2022-11-23T00:01:24;3.70;99.90
14016;DHT22;7083;48.854;9.158;2022-11-23T00:03:53;3.60;99.90
14016;DHT22;7083;48.854;9.158;2022-11-23T00:06:20;3.70;99.90
14016;DHT22;7083;48.854;9.158;2022-11-23T00:08:48;3.70;99.90
14016;DHT22;7083;48.854;9.158;2022-11-23T00:11:15;3.70;99.90
14016;DHT22;7083;48.854;9.158;2022-11-23T00:13:44;3.60;99.90
14016;DHT22;7083;48.854;9.158;2022-11-23T00:16:13;3.60;99.90
14016;DHT22;7083;48.854;9.158;2022-11-23T00:18:40;3.50;99.90
14016;DHT22;7083;48.854;9.158;2022-11-23T00:21:07;3.50;99.90
14016;DHT22;7083;48.854;9.158;2022-11-23T00:23:34;3.40;99.90
14016;DHT22;7083;48.854;9.158;2022-11-23T00:26:01;3.40;99.90
14016;DHT22;7083;48.854;9.158;2022-11-23T00:28:28;3.30;99.90
14016;DHT22;7083;48.854;9.158;2022-11-23T00:30:56;3.20;99.90
14016;DHT22;7083;48.854;9.158;2022-11-23T00:33:23;3.10;99.90
14016;DHT22;7083;48.854;9.158;2022-11-23T00:35:58;3.00;99.90
14016;DHT22;7083;48.854;9.158;2022-11-23T00:38:26;3.00;99.90
14016;DHT22;7083;48.854;9.158;2022-11-23T00:40:57;3.00;99.90
14016;DHT22;7083;48.854;9.158;2022-11-23T00:43:25;3.00;99.90
14016;DHT22;7083;48.854;9.158;2022-11-23T00:46:05;3.10;99.90
14016;DHT22;7083;48.854;9.158;2022-11-23T00:48:32;3.20;99.90
14016;DHT22;7083;48.854;9.158;2022-11-23T00:51:00;3.30;99.90
14016;DHT22;7083;48.854;9.158;2022-11-23T00:53:27;3.40;99.90
14016;DHT22;7083;48.854;9.158;2022-11-23T00:55:54;3.50;99.90
14016;DHT22;7083;48.854;9.158;2022-11-23T00:58:22;3.50;99.90
14016;DHT22;7083;48.854;9.158;2022-11-23T01:00:49;3.70;99.90
14016;DHT22;7083;48.854;9.158;2022-11-23T01:03:17;3.70;99.90
14016;DHT22;7083;48.854;9.158;2022-11-23T01:05:44;3.80;99.90
14016;DHT22;7083;48.854;9.158;2022-11-23T01:08:11;3.90;99.90
14016;DHT22;7083;48.854;9.158;2022-11-23T01:10:38;3.90;99.90
14016;DHT22;7083;48.854;9.158;2022-11-23T01:13:04;4.00;99.90
14016;DHT22;7083;48.854;9.158;2022-11-23T01:15:31;4.10;99.90
14016;DHT22;7083;48.854;9.158;2022-11-23T01:17:58;4.20;99.90
14016;DHT22;7083;48.854;9.158;2022-11-23T01:20:26;4.20;99.90
14016;DHT22;7083;48.854;9.158;2022-11-23T01:22:53;4.20;99.90
14016;DHT22;7083;48.854;9.158;2022-11-23T01:25:19;4.30;99.90
14016;DHT22;7083;48.854;9.158;2022-11-23T01:27:46;4.30;99.90
14016;DHT22;7083;48.854;9.158;2022-11-23T01:30:13;4.20;99.90
14016;DHT22;7083;48.854;9.158;2022-11-23T01:32:40;4.20;99.90
14016;DHT22;7083;48.854;9.158;2022-11-23T01:35:07;4.20;99.90
14016;DHT22;7083;48.854;9.158;2022-11-23T01:37:35;4.10;99.90
14016;DHT22;7083;48.854;9.158;2022-11-23T01:40:03;4.10;99.90
14016;DHT22;7083;48.854;9.158;2022-11-23T01:42:45;4.10;99.90
14016;DHT22;7083;48.854;9.158;2022-11-23T01:45:32;4.10;99.90
14016;DHT22;7083;48.854;9.158;2022-11-23T01:47:59;4.10;99.90
14016;DHT22;7083;48.854;9.158;2022-11-23T01:50:26;4.00;99.90
14016;DHT22;7083;48.854;9.158;2022-11-23T01:52:55;4.00;99.90
14016;DHT22;7083;48.854;9.158;2022-11-23T01:55:24;4.10;99.90
14016;DHT22;7083;48.854;9.158;2022-11-23T01:57:52;4.20;99.90
14016;DHT22;7083;48.854;9.158;2022-11-23T02:00:19;4.30;99.90
14016;DHT22;7083;48.854;9.158;2022-11-23T02:02:51;4.30;99.90
14016;DHT22;7083;48.854;9.158;2022-11-23T02:05:20;4.40;99.90
14016;DHT22;7083;48.854;9.158;2022-11-23T02:07:49;4.40;99.90
14016;DHT22;7083;48.854;9.158;2022-11-23T02:10:18;4.50;99.90
14016;DHT22;7083;48.854;9.158;2022-11-23T02:12:47;4.40;99.90
14016;DHT22;7083;48.854;9.158;2022-11-23T02:15:14;4.40;99.90
14016;DHT22;7083;48.854;9.158;2022-11-23T02:17:42;4.40;99.90
14016;DHT22;7083;48.854;9.158;2022-11-23T02:20:10;4.40;99.90
14016;DHT22;7083;48.854;9.158;2022-11-23T02:22:46;4.50;99.90
14016;DHT22;7083;48.854;9.158;2022-11-23T02:25:21;4.50;99.90
14016;DHT22;7083;48.854;9.158;2022-11-23T02:27:52;4.60;99.90
14016;DHT22;7083;48.854;9.158;2022-11-23T02:30:19;4.60;99.90
14016;DHT22;7083;48.854;9.158;2022-11-23T02:32:46;4.60;99.90
14016;DHT22;7083;48.854;9.158;2022-11-23T02:35:13;4.60;99.90
14016;DHT22;7083;48.854;9.158;2022-11-23T02:37:41;4.50;99.90
14016;DHT22;7083;48.854;9.158;2022-11-23T02:40:16;4.40;99.90
14016;DHT22;7083;48.854;9.158;2022-11-23T02:42:47;4.20;99.90
14016;DHT22;7083;48.854;9.158;2022-11-23T02:45:23;4.10;99.90
14016;DHT22;7083;48.854;9.158;2022-11-23T02:47:53;4.00;99.90
14016;DHT22;7083;48.854;9.158;2022-11-23T02:50:20;3.90;99.90
14016;DHT22;7083;48.854;9.158;2022-11-23T02:52:47;3.80;99.90
14016;DHT22;7083;48.854;9.158;2022-11-23T02:55:14;3.70;99.90
14016;DHT22;7083;48.854;9.158;2022-11-23T02:57:41;3.60;99.90
14016;DHT22;7083;48.854;9.158;2022-11-23T03:00:09;3.50;99.90
14016;DHT22;7083;48.854;9.158;2022-11-23T03:02:37;3.50;99.90
14016;DHT22;7083;48.854;9.158;2022-11-23T03:05:04;3.40;99.90
14016;DHT22;7083;48.854;9.158;2022-11-23T03:07:31;3.30;99.90
14016;DHT22;7083;48.854;9.158;2022-11-23T03:09:58;3.30;99.90
14016;DHT22;7083;48.854;9.158;2022-11-23T03:12:25;3.20;99.90
14016;DHT22;7083;48.854;9.158;2022-11-23T03:14:52;3.10;99.90
14016;DHT22;7083;48.854;9.158;2022-11-23T03:17:19;3.10;99.90
14016;DHT22;7083;48.854;9.158;2022-11-23T03:19:47;3.10;99.90
14016;DHT22;7083;48.854;9.158;2022-11-23T03:22:14;3.00;99.90
14016;DHT22;7083;48.854;9.158;2022-11-23T03:24:40;3.00;99.90
14016;DHT22;7083;48.854;9.158;2022-11-23T03:27:07;3.00;99.90
14016;DHT22;7083;48.854;9.158;2022-11-23T03:29:34;3.00;99.90
14016;DHT22;7083;48.854;9.158;2022-11-23T03:32:01;3.00;99.90
14016;DHT22;7083;48.854;9.158;2022-11-23T03:34:28;3.00;99.90
14016;DHT22;7083;48.854;9.158;2022-11-23T03:36:56;3.00;99.90
14016;DHT22;7083;48.854;9.158;2022-11-23T03:39:22;3.00;99.90
14016;DHT22;7083;48.854;9.158;2022-11-23T03:41:49;3.10;99.90
14016;DHT22;7083;48.854;9.158;2022-11-23T03:44:16;3.10;99.90
14016;DHT22;7083;48.854;9.158;2022-11-23T03:46:43;3.10;99.90
14016;DHT22;7083;48.854;9.158;2022-11-23T03:49:09;3.20;99.90
14016;DHT22;7083;48.854;9.158;2022-11-23T03:51:37;3.20;99.90
14016;DHT22;7083;48.854;9.158;2022-11-23T03:54:05;3.30;99.90
14016;DHT22;7083;48.854;9.158;2022-11-23T03:56:32;3.30;99.90
14016;DHT22;7083;48.854;9.158;2022-11-23T03:58:58;3.40;99.90
14016;DHT22;7083;48.854;9.158;2022-11-23T04:01:25;3.40;99.90
14016;DHT22;7083;48.854;9.158;2022-11-23T04:03:52;3.50;99.90
14016;DHT22;7083;48.854;9.158;2022-11-23T04:06:19;3.50;99.90
14016;DHT22;7083;48.854;9.158;2022-11-23T04:08:45;3.60;99.90
14016;DHT22;7083;48.854;9.158;2022-11-23T04:11:14;3.60;99.90
14016;DHT22;7083;48.854;9.158;2022-11-23T04:13:40;3.60;99.90
14016;DHT22;7083;48.854;9.158;2022-11-23T04:16:07;3.70;99.90
14016;DHT22;7083;48.854;9.158;2022-11-23T04:18:34;3.70;99.90
14016;DHT22;7083;48.854;9.158;2022-11-23T04:21:00;3.80;99.90
14016;DHT22;7083;48.854;9.158;2022-11-23T04:23:27;3.90;99.90
14016;DHT22;7083;48.854;9.158;2022-11-23T04:25:54;3.90;99.90
14016;DHT22;7083;48.854;9.158;2022-11-23T04:28:22;4.00;99.90
14016;DHT22;7083;48.854;9.158;2022-11-23T04:30:49;4.00;99.90
14016;DHT22;7083;48.854;9.158;2022-11-23T04:33:16;4.00;99.90
14016;DHT22;7083;48.854;9.158;2022-11-23T04:35:43;4.00;99.90
14016;DHT22;7083;48.854;9.158;2022-11-23T04:38:09;4.00;99.90
14016;DHT22;7083;48.854;9.158;2022-11-23T04:40:36;4.00;99.90
14016;DHT22;7083;48.854;9.158;2022-11-23T04:43:03;3.90;99.90
14016;DHT22;7083;48.854;9.158;2022-11-23T04:45:32;3.90;99.90
14016;DHT22;7083;48.854;9.158;2022-11-23T04:47:59;3.80;99.90
14016;DHT22;7083;48.854;9.158;2022-11-23T04:50:25;3.80;99.90
14016;DHT22;7083;48.854;9.158;2022-11-23T04:52:52;3.70;99.90
14016;DHT22;7083;48.854;9.158;2022-11-23T04:55:19;3.60;99.90
14016;DHT22;7083;48.854;9.158;2022-11-23T04:57:46;3.50;99.90
14016;DHT22;7083;48.854;9.158;2022-11-23T05:00:13;3.40;99.90
14016;DHT22;7083;48.854;9.158;2022-11-23T05:02:42;3.30;99.90
14016;DHT22;7083;48.854;9.158;2022-11-23T05:05:08;3.20;99.90
14016;DHT22;7083;48.854;9.158;2022-11-23T05:07:36;3.10;99.90
14016;DHT22;7083;48.854;9.158;2022-11-23T05:10:03;3.00;99.90
14016;DHT22;7083;48.854;9.158;2022-11-23T05:12:30;3.00;99.90
14016;DHT22;7083;48.854;9.158;2022-11-23T05:14:57;2.90;99.90
14016;DHT22;7083;48.854;9.158;2022-11-23T05:17:24;2.80;99.90
14016;DHT22;7083;48.854;9.158;2022-11-23T05:19:52;2.70;99.90
14016;DHT22;7083;48.854;9.158;2022-11-23T05:22:20;2.60;99.90
14016;DHT22;7083;48.854;9.158;2022-11-23T05:24:47;2.60;99.90
14016;DHT22;7083;48.854;9.158;2022-11-23T05:27:13;2.60;99.90
14016;DHT22;7083;48.854;9.158;2022-11-23T05:29:40;2.60;99.90
14016;DHT22;7083;48.854;9.158;2022-11-23T05:32:07;2.60;99.90
14016;DHT22;7083;48.854;9.158;2022-11-23T05:34:33;2.60;99.90
14016;DHT22;7083;48.854;9.158;2022-11-23T05:37:02;2.70;99.90
14016;DHT22;7083;48.854;9.158;2022-11-23T05:39:29;2.70;99.90
14016;DHT22;7083;48.854;9.158;2022-11-23T05:41:55;2.80;99.90
14016;DHT22;7083;48.854;9.158;2022-11-23T05:44:22;2.90;99.90
14016;DHT22;7083;48.854;9.158;2022-11-23T05:46:49;2.90;99.90
14016;DHT22;7083;48.854;9.158;2022-11-23T05:49:16;3.00;99.90
14016;DHT22;7083;48.854;9.158;2022-11-23T05:51:42;3.00;99.90
14016;DHT22;7083;48.854;9.158;2022-11-23T05:54:10;3.10;99.90
14016;DHT22;7083;48.854;9.158;2022-11-23T05:56:37;3.20;99.90
14016;DHT22;7083;48.854;9.158;2022-11-23T05:59:04;3.20;99.90
14016;DHT22;7083;48.854;9.158;2022-11-23T06:01:32;3.30;99.90
14016;DHT22;7083;48.854;9.158;2022-11-23T06:03:59;3.40;99.90
14016;DHT22;7083;48.854;9.158;2022-11-23T06:06:26;3.40;99.90
14016;DHT22;7083;48.854;9.158;2022-11-23T06:08:53;3.50;99.90
14016;DHT22;7083;48.854;9.158;2022-11-23T06:11:21;3.50;99.90
14016;DHT22;7083;48.854;9.158;2022-11-23T06:13:48;3.60;99.90
14016;DHT22;7083;48.854;9.158;2022-11-23T06:16:15;3.70;99.90
14016;DHT22;7083;48.854;9.158;2022-11-23T06:18:42;3.60;99.90
14016;DHT22;7083;48.854;9.158;2022-11-23T06:21:08;3.60;99.90
14016;DHT22;7083;48.854;9.158;2022-11-23T06:23:35;3.60;99.90
14016;DHT22;7083;48.854;9.158;2022-11-23T06:26:02;3.60;99.90
14016;DHT22;7083;48.854;9.158;2022-11-23T06:28:30;3.60;99.90
14016;DHT22;7083;48.854;9.158;2022-11-23T06:31:01;3.70;99.90
14016;DHT22;7083;48.854;9.158;2022-11-23T06:33:28;3.70;99.90
14016;DHT22;7083;48.854;9.158;2022-11-23T06:35:56;3.70;99.90
14016;DHT22;7083;48.854;9.158;2022-11-23T06:38:23;3.60;99.90
14016;DHT22;7083;48.854;9.158;2022-11-23T06:40:50;3.60;99.90
14016;DHT22;7083;48.854;9.158;2022-11-23T06:43:17;3.60;99.90
14016;DHT22;7083;48.854;9.158;2022-11-23T06:45:45;4.70;99.90
14016;DHT22;7083;48.854;9.158;2022-11-23T06:48:11;3.60;99.90
14016;DHT22;7083;48.854;9.158;2022-11-23T06:50:38;3.70;99.90
14016;DHT22;7083;48.854;9.158;2022-11-23T06:53:05;3.70;99.90
14016;DHT22;7083;48.854;9.158;2022-11-23T06:55:32;3.70;99.90
14016;DHT22;7083;48.854;9.158;2022-11-23T06:57:59;3.70;99.90
14016;DHT22;7083;48.854;9.158;2022-11-23T07:00:25;3.70;99.90
14016;DHT22;7083;48.854;9.158;2022-11-23T07:02:54;3.70;99.90
14016;DHT22;7083;48.854;9.158;2022-11-23T07:05:21;3.80;99.90
14016;DHT22;7083;48.854;9.158;2022-11-23T07:07:48;3.80;99.90
14016;DHT22;7083;48.854;9.158;2022-11-23T07:12:43;3.80;99.90
14016;DHT22;7083;48.854;9.158;2022-11-23T07:15:10;3.80;99.90
14016;DHT22;7083;48.854;9.158;2022-11-23T07:17:38;3.80;99.90
14016;DHT22;7083;48.854;9.158;2022-11-23T07:20:08;3.80;99.90
14016;DHT22;7083;48.854;9.158;2022-11-23T07:22:35;3.80;99.90
14016;DHT22;7083;48.854;9.158;2022-11-23T07:25:02;3.80;99.90
14016;DHT22;7083;48.854;9.158;2022-11-23T07:27:30;3.80;99.90
14016;DHT22;7083;48.854;9.158;2022-11-23T07:29:56;3.80;99.90
14016;DHT22;7083;48.854;9.158;2022-11-23T07:32:23;3.80;99.90
14016;DHT22;7083;48.854;9.158;2022-11-23T07:34:50;3.70;99.90
14016;DHT22;7083;48.854;9.158;2022-11-23T07:37:18;3.70;99.90
14016;DHT22;7083;48.854;9.158;2022-11-23T07:39:44;3.70;99.90
14016;DHT22;7083;48.854;9.158;2022-11-23T07:42:11;3.60;99.90
14016;DHT22;7083;48.854;9.158;2022-11-23T07:44:38;3.70;99.90
14016;DHT22;7083;48.854;9.158;2022-11-23T07:47:05;3.70;99.90
14016;DHT22;7083;48.854;9.158;2022-11-23T07:49:32;3.70;99.90
14016;DHT22;7083;48.854;9.158;2022-11-23T07:51:58;3.80;99.90
14016;DHT22;7083;48.854;9.158;2022-11-23T07:54:26;3.80;99.90
14016;DHT22;7083;48.854;9.158;2022-11-23T07:56:53;3.90;99.90
14016;DHT22;7083;48.854;9.158;2022-11-23T07:59:20;3.90;99.90
14016;DHT22;7083;48.854;9.158;2022-11-23T08:01:46;3.90;99.90
14016;DHT22;7083;48.854;9.158;2022-11-23T08:04:13;4.00;99.90
14016;DHT22;7083;48.854;9.158;2022-11-23T08:06:40;4.10;99.90
14016;DHT22;7083;48.854;9.158;2022-11-23T08:09:07;4.20;99.90
14016;DHT22;7083;48.854;9.158;2022-11-23T08:11:35;4.20;99.90
14016;DHT22;7083;48.854;9.158;2022-11-23T08:14:01;4.30;99.90
14016;DHT22;7083;48.854;9.158;2022-11-23T08:16:28;4.40;99.90
14016;DHT22;7083;48.854;9.158;2022-11-23T08:18:56;4.50;99.90
14016;DHT22;7083;48.854;9.158;2022-11-23T08:21:22;4.60;99.90
14016;DHT22;7083;48.854;9.158;2022-11-23T08:23:49;4.70;99.90
14016;DHT22;7083;48.854;9.158;2022-11-23T08:26:16;4.90;99.90
14016;DHT22;7083;48.854;9.158;2022-11-23T08:28:44;4.90;99.90
14016;DHT22;7083;48.854;9.158;2022-11-23T08:31:11;5.00;99.90
14016;DHT22;7083;48.854;9.158;2022-11-23T08:33:39;5.10;99.90
14016;DHT22;7083;48.854;9.158;2022-11-23T08:36:07;5.20;99.90
14016;DHT22;7083;48.854;9.158;2022-11-23T08:38:34;5.20;99.90
14016;DHT22;7083;48.854;9.158;2022-11-23T08:41:02;5.30;99.90
14016;DHT22;7083;48.854;9.158;2022-11-23T08:43:29;5.30;99.90
14016;DHT22;7083;48.854;9.158;2022-11-23T08:45:58;5.30;99.90
14016;DHT22;7083;48.854;9.158;2022-11-23T08:48:26;5.30;99.90
14016;DHT22;7083;48.854;9.158;2022-11-23T08:50:53;5.30;99.90
14016;DHT22;7083;48.854;9.158;2022-11-23T08:53:20;5.40;99.90
14016;DHT22;7083;48.854;9.158;2022-11-23T08:55:47;5.40;99.90
14016;DHT22;7083;48.854;9.158;2022-11-23T08:58:13;5.50;99.90
14016;DHT22;7083;48.854;9.158;2022-11-23T09:00:40;5.60;99.90
14016;DHT22;7083;48.854;9.158;2022-11-23T09:03:08;5.60;99.90
14016;DHT22;7083;48.854;9.158;2022-11-23T09:05:36;5.60;99.90
14016;DHT22;7083;48.854;9.158;2022-11-23T09:08:04;5.60;99.90
14016;DHT22;7083;48.854;9.158;2022-11-23T09:10:31;5.60;99.90
14016;DHT22;7083;48.854;9.158;2022-11-23T09:12:58;5.60;99.90
14016;DHT22;7083;48.854;9.158;2022-11-23T09:15:25;5.70;99.90
14016;DHT22;7083;48.854;9.158;2022-11-23T09:17:52;5.70;99.90
14016;DHT22;7083;48.854;9.158;2022-11-23T09:20:20;5.70;99.90
14016;DHT22;7083;48.854;9.158;2022-11-23T09:22:50;5.70;99.90
14016;DHT22;7083;48.854;9.158;2022-11-23T09:25:17;5.70;99.90
14016;DHT22;7083;48.854;9.158;2022-11-23T09:27:44;5.70;99.90
14016;DHT22;7083;48.854;9.158;2022-11-23T09:30:12;5.80;99.90
14016;DHT22;7083;48.854;9.158;2022-11-23T09:32:39;5.80;99.90
14016;DHT22;7083;48.854;9.158;2022-11-23T09:35:06;5.80;99.90
14016;DHT22;7083;48.854;9.158;2022-11-23T09:37:35;5.90;99.90
14016;DHT22;7083;48.854;9.158;2022-11-23T09:40:02;5.90;99.90
14016;DHT22;7083;48.854;9.158;2022-11-23T09:42:50;6.00;99.90
14016;DHT22;7083;48.854;9.158;2022-11-23T09:45:21;6.10;99.90
14016;DHT22;7083;48.854;9.158;2022-11-23T09:48:17;6.10;99.90
14016;DHT22;7083;48.854;9.158;2022-11-23T09:50:49;6.20;99.90
14016;DHT22;7083;48.854;9.158;2022-11-23T09:53:20;6.20;99.90
14016;DHT22;7083;48.854;9.158;2022-11-23T09:55:49;6.20;99.90
14016;DHT22;7083;48.854;9.158;2022-11-23T09:58:19;6.30;99.90
14016;DHT22;7083;48.854;9.158;2022-11-23T10:00:49;6.40;99.90
14016;DHT22;7083;48.854;9.158;2022-11-23T10:03:17;6.40;99.90
14016;DHT22;7083;48.854;9.158;2022-11-23T10:05:51;6.40;99.90
14016;DHT22;7083;48.854;9.158;2022-11-23T10:08:34;6.40;99.90
14016;DHT22;7083;48.854;9.158;2022-11-23T10:11:11;6.50;99.90
14016;DHT22;7083;48.854;9.158;2022-11-23T10:13:44;6.60;99.90
14016;DHT22;7083;48.854;9.158;2022-11-23T10:16:25;6.50;99.90
14016;DHT22;7083;48.854;9.158;2022-11-23T10:18:59;6.60;99.90
14016;DHT22;7083;48.854;9.158;2022-11-23T10:21:36;6.60;99.90
14016;DHT22;7083;48.854;9.158;2022-11-23T10:24:15;6.70;99.90
14016;DHT22;7083;48.854;9.158;2022-11-23T10:26:46;6.70;99.90
14016;DHT22;7083;48.854;9.158;2022-11-23T10:29:15;6.80;99.90
14016;DHT22;7083;48.854;9.158;2022-11-23T10:31:46;6.90;99.90
14016;DHT22;7083;48.854;9.158;2022-11-23T10:34:15;6.90;99.90
14016;DHT22;7083;48.854;9.158;2022-11-23T10:36:44;7.00;99.90
14016;DHT22;7083;48.854;9.158;2022-11-23T10:39:19;7.10;99.90
14016;DHT22;7083;48.854;9.158;2022-11-23T10:41:47;7.10;99.90
14016;DHT22;7083;48.854;9.158;2022-11-23T10:44:27;7.20;99.90
14016;DHT22;7083;48.854;9.158;2022-11-23T10:46:55;7.20;99.90
14016;DHT22;7083;48.854;9.158;2022-11-23T10:49:23;7.20;99.90
14016;DHT22;7083;48.854;9.158;2022-11-23T10:51:55;7.30;99.90
14016;DHT22;7083;48.854;9.158;2022-11-23T10:54:30;7.30;99.90
14016;DHT22;7083;48.854;9.158;2022-11-23T10:56:58;7.30;99.90
14016;DHT22;7083;48.854;9.158;2022-11-23T10:59:28;7.40;99.90
14016;DHT22;7083;48.854;9.158;2022-11-23T11:02:16;7.50;99.90
14016;DHT22;7083;48.854;9.158;2022-11-23T11:04:43;7.50;99.90
14016;DHT22;7083;48.854;9.158;2022-11-23T11:07:26;7.60;99.90
14016;DHT22;7083;48.854;9.158;2022-11-23T11:09:57;7.60;99.90
14016;DHT22;7083;48.854;9.158;2022-11-23T11:12:25;7.70;99.90
14016;DHT22;7083;48.854;9.158;2022-11-23T11:14:58;7.70;99.90
14016;DHT22;7083;48.854;9.158;2022-11-23T11:17:29;7.80;99.90
14016;DHT22;7083;48.854;9.158;2022-11-23T11:19:57;7.80;99.90
14016;DHT22;7083;48.854;9.158;2022-11-23T11:22:27;7.80;99.90
14016;DHT22;7083;48.854;9.158;2022-11-23T11:24:55;7.90;99.90
14016;DHT22;7083;48.854;9.158;2022-11-23T11:27:24;7.90;99.90
14016;DHT22;7083;48.854;9.158;2022-11-23T11:29:54;8.00;99.90
14016;DHT22;7083;48.854;9.158;2022-11-23T11:32:25;8.00;99.90
14016;DHT22;7083;48.854;9.158;2022-11-23T11:34:59;8.00;99.90
14016;DHT22;7083;48.854;9.158;2022-11-23T11:37:33;8.00;99.90
14016;DHT22;7083;48.854;9.158;2022-11-23T11:40:08;8.10;99.90
14016;DHT22;7083;48.854;9.158;2022-11-23T11:42:39;8.10;99.90
14016;DHT22;7083;48.854;9.158;2022-11-23T11:45:15;8.20;99.90
14016;DHT22;7083;48.854;9.158;2022-11-23T11:47:46;8.30;99.90
14016;DHT22;7083;48.854;9.158;2022-11-23T11:50:19;8.30;99.90
14016;DHT22;7083;48.854;9.158;2022-11-23T11:52:48;8.30;99.90
14016;DHT22;7083;48.854;9.158;2022-11-23T11:55:21;8.30;99.90
14016;DHT22;7083;48.854;9.158;2022-11-23T11:58:01;8.40;99.90
14016;DHT22;7083;48.854;9.158;2022-11-23T12:00:29;8.50;99.90
14016;DHT22;7083;48.854;9.158;2022-11-23T12:03:05;8.50;99.90
14016;DHT22;7083;48.854;9.158;2022-11-23T12:05:37;8.50;99.90
14016;DHT22;7083;48.854;9.158;2022-11-23T12:08:09;8.60;99.90
14016;DHT22;7083;48.854;9.158;2022-11-23T12:10:42;8.60;99.90
14016;DHT22;7083;48.854;9.158;2022-11-23T12:13:12;8.70;99.90
14016;DHT22;7083;48.854;9.158;2022-11-23T12:15:43;8.70;99.90
14016;DHT22;7083;48.854;9.158;2022-11-23T12:18:41;8.80;99.90
14016;DHT22;7083;48.854;9.158;2022-11-23T12:21:20;8.80;99.90
14016;DHT22;7083;48.854;9.158;2022-11-23T12:23:56;8.90;99.90
14016;DHT22;7083;48.854;9.158;2022-11-23T12:26:33;9.00;99.90
14016;DHT22;7083;48.854;9.158;2022-11-23T12:29:30;9.10;99.90
14016;DHT22;7083;48.854;9.158;2022-11-23T12:32:10;9.10;99.90
14016;DHT22;7083;48.854;9.158;2022-11-23T12:35:05;9.20;99.90
14016;DHT22;7083;48.854;9.158;2022-11-23T12:37:43;9.30;99.50
14016;DHT22;7083;48.854;9.158;2022-11-23T12:40:26;9.30;98.10
14016;DHT22;7083;48.854;9.158;2022-11-23T12:43:00;9.40;98.00
14016;DHT22;7083;48.854;9.158;2022-11-23T12:45:55;9.50;97.40
14016;DHT22;7083;48.854;9.158;2022-11-23T12:48:31;9.50;97.70
14016;DHT22;7083;48.854;9.158;2022-11-23T12:51:07;9.50;97.30
14016;DHT22;7083;48.854;9.158;2022-11-23T12:53:46;9.60;96.40
14016;DHT22;7083;48.854;9.158;2022-11-23T12:56:23;9.60;95.30
14016;DHT22;7083;48.854;9.158;2022-11-23T12:58:55;9.60;94.80
14016;DHT22;7083;48.854;9.158;2022-11-23T13:01:28;9.60;94.40
14016;DHT22;7083;48.854;9.158;2022-11-23T13:04:16;9.70;94.50
14016;DHT22;7083;48.854;9.158;2022-11-23T13:10:00;9.80;93.30
14016;DHT22;7083;48.854;9.158;2022-11-23T13:12:42;9.80;93.40
14016;DHT22;7083;48.854;9.158;2022-11-23T13:15:25;9.80;92.80
14016;DHT22;7083;48.854;9.158;2022-11-23T13:17:57;9.80;92.70
14016;DHT22;7083;48.854;9.158;2022-11-23T13:20:45;9.90;93.00
14016;DHT22;7083;48.854;9.158;2022-11-23T13:23:14;9.90;92.50
14016;DHT22;7083;48.854;9.158;2022-11-23T13:26:16;9.90;93.10
14016;DHT22;7083;48.854;9.158;2022-11-23T13:28:44;9.90;92.50
14016;DHT22;7083;48.854;9.158;2022-11-23T13:31:24;9.90;93.00
14016;DHT22;7083;48.854;9.158;2022-11-23T13:33:52;9.80;92.10
14016;DHT22;7083;48.854;9.158;2022-11-23T13:36:35;9.80;91.50
14016;DHT22;7083;48.854;9.158;2022-11-23T13:42:25;9.80;92.10
14016;DHT22;7083;48.854;9.158;2022-11-23T13:45:22;9.70;92.10
14016;DHT22;7083;48.854;9.158;2022-11-23T13:48:13;9.70;91.90
14016;DHT22;7083;48.854;9.158;2022-11-23T13:50:56;9.70;91.60
14016;DHT22;7083;48.854;9.158;2022-11-23T13:53:25;9.60;92.10
14016;DHT22;7083;48.854;9.158;2022-11-23T13:55:55;9.60;92.30
14016;DHT22;7083;48.854;9.158;2022-11-23T13:58:36;9.90;92.60
14016;DHT22;7083;48.854;9.158;2022-11-23T14:01:03;10.20;91.70
14016;DHT22;7083;48.854;9.158;2022-11-23T14:03:52;10.20;90.80
14016;DHT22;7083;48.854;9.158;2022-11-23T14:06:44;10.10;91.60
14016;DHT22;7083;48.854;9.158;2022-11-23T14:09:17;10.20;91.80
14016;DHT22;7083;48.854;9.158;2022-11-23T14:11:56;10.30;91.90
14016;DHT22;7083;48.854;9.158;2022-11-23T14:14:27;10.50;91.30
14016;DHT22;7083;48.854;9.158;2022-11-23T14:17:09;10.40;91.00
14016;DHT22;7083;48.854;9.158;2022-11-23T14:22:59;10.10;90.80
14016;DHT22;7083;48.854;9.158;2022-11-23T14:25:36;9.80;91.60
14016;DHT22;7083;48.854;9.158;2022-11-23T14:28:16;9.50;91.80
14016;DHT22;7083;48.854;9.158;2022-11-23T14:30:58;9.30;92.30
14016;DHT22;7083;48.854;9.158;2022-11-23T14:33:34;9.10;92.90
14016;DHT22;7083;48.854;9.158;2022-11-23T14:36:13;8.90;93.10
14016;DHT22;7083;48.854;9.158;2022-11-23T14:41:50;8.50;94.40
14016;DHT22;7083;48.854;9.158;2022-11-23T14:44:22;8.40;94.40
14016;DHT22;7083;48.854;9.158;2022-11-23T14:46:59;8.30;94.80
14016;DHT22;7083;48.854;9.158;2022-11-23T14:49:27;8.20;94.70
14016;DHT22;7083;48.854;9.158;2022-11-23T14:51:55;8.10;94.90
14016;DHT22;7083;48.854;9.158;2022-11-23T14:54:23;8.10;94.80
14016;DHT22;7083;48.854;9.158;2022-11-23T14:56:52;8.00;95.30
14016;DHT22;7083;48.854;9.158;2022-11-23T14:59:23;7.90;95.00
14016;DHT22;7083;48.854;9.158;2022-11-23T15:01:53;7.80;95.20
14016;DHT22;7083;48.854;9.158;2022-11-23T15:04:23;7.70;95.50
14016;DHT22;7083;48.854;9.158;2022-11-23T15:06:53;7.60;95.70
14016;DHT22;7083;48.854;9.158;2022-11-23T15:09:35;7.50;96.40
14016;DHT22;7083;48.854;9.158;2022-11-23T15:12:06;7.40;96.60
14016;DHT22;7083;48.854;9.158;2022-11-23T15:14:33;7.30;96.70
14016;DHT22;7083;48.854;9.158;2022-11-23T15:17:12;7.20;97.50
14016;DHT22;7083;48.854;9.158;2022-11-23T15:19:39;7.10;97.80
14016;DHT22;7083;48.854;9.158;2022-11-23T15:22:13;7.00;98.50
14016;DHT22;7083;48.854;9.158;2022-11-23T15:24:42;6.90;98.70
14016;DHT22;7083;48.854;9.158;2022-11-23T15:27:14;6.90;99.60
14016;DHT22;7083;48.854;9.158;2022-11-23T15:29:50;6.80;99.20
14016;DHT22;7083;48.854;9.158;2022-11-23T15:32:23;6.60;99.30
14016;DHT22;7083;48.854;9.158;2022-11-23T15:34:52;6.50;99.90
14016;DHT22;7083;48.854;9.158;2022-11-23T15:37:20;6.40;99.90
14016;DHT22;7083;48.854;9.158;2022-11-23T15:39:49;6.30;99.90
14016;DHT22;7083;48.854;9.158;2022-11-23T15:42:17;6.30;99.90
14016;DHT22;7083;48.854;9.158;2022-11-23T15:44:45;6.20;99.90
14016;DHT22;7083;48.854;9.158;2022-11-23T15:47:14;6.10;99.90
14016;DHT22;7083;48.854;9.158;2022-11-23T15:49:43;6.10;99.90
14016;DHT22;7083;48.854;9.158;2022-11-23T15:52:13;6.10;99.90
14016;DHT22;7083;48.854;9.158;2022-11-23T15:54:40;6.20;99.90
14016;DHT22;7083;48.854;9.158;2022-11-23T15:57:14;6.20;99.90
14016;DHT22;7083;48.854;9.158;2022-11-23T15:59:45;6.20;99.90
14016;DHT22;7083;48.854;9.158;2022-11-23T16:02:15;6.30;99.90
14016;DHT22;7083;48.854;9.158;2022-11-23T16:04:43;6.30;99.90
14016;DHT22;7083;48.854;9.158;2022-11-23T16:07:18;6.30;99.90
14016;DHT22;7083;48.854;9.158;2022-11-23T16:09:47;6.40;99.90
14016;DHT22;7083;48.854;9.158;2022-11-23T16:12:26;6.40;99.90
14016;DHT22;7083;48.854;9.158;2022-11-23T16:14:54;6.40;99.90
14016;DHT22;7083;48.854;9.158;2022-11-23T16:17:22;6.50;99.90
14016;DHT22;7083;48.854;9.158;2022-11-23T16:19:51;6.50;99.90
14016;DHT22;7083;48.854;9.158;2022-11-23T16:22:24;6.60;99.90
14016;DHT22;7083;48.854;9.158;2022-11-23T16:24:57;6.70;99.90
14016;DHT22;7083;48.854;9.158;2022-11-23T16:27:27;6.70;99.90
14016;DHT22;7083;48.854;9.158;2022-11-23T16:29:54;6.80;99.90
14016;DHT22;7083;48.854;9.158;2022-11-23T16:32:23;6.80;99.90
14016;DHT22;7083;48.854;9.158;2022-11-23T16:34:50;6.90;99.90
14016;DHT22;7083;48.854;9.158;2022-11-23T16:37:17;6.90;99.90